sensor_id;sensor_type;location;lat;lon;timestamp;temperature;humidity
53776;DHT22;44276;49.534;6.378;2023-01-05T00:01:37;12.30;99.90
53776;DHT22;44276;49.534;6.378;2023-01-05T00:04:06;12.30;99.90
53776;DHT22;44276;49.534;6.378;2023-01-05T00:06:35;12.30;99.90
53776;DHT22;44276;49.534;6.378;2023-01-05T00:09:05;12.30;99.90
53776;DHT22;44276;49.534;6.378;2023-01-05T00:11:34;12.40;99.90
53776;DHT22;44276;49.534;6.378;2023-01-05T00:14:24;12.50;99.90
53776;DHT22;44276;49.534;6.378;2023-01-05T00:17:14;12.50;99.90
53776;DHT22;44276;49.534;6.378;2023-01-05T00:20:01;12.50;99.90
53776;DHT22;44276;49.534;6.378;2023-01-05T00:22:49;12.50;99.90
53776;DHT22;44276;49.534;6.378;2023-01-05T00:25:21;12.50;99.90
53776;DHT22;44276;49.534;6.378;2023-01-05T00:27:51;12.50;99.90
53776;DHT22;44276;49.534;6.378;2023-01-05T00:30:23;12.60;99.90
53776;DHT22;44276;49.534;6.378;2023-01-05T00:32:53;12.50;99.90
53776;DHT22;44276;49.534;6.378;2023-01-05T00:35:22;12.50;99.90
53776;DHT22;44276;49.534;6.378;2023-01-05T00:37:51;12.50;99.90
53776;DHT22;44276;49.534;6.378;2023-01-05T00:40:19;12.50;99.90
53776;DHT22;44276;49.534;6.378;2023-01-05T00:42:48;12.60;99.90
53776;DHT22;44276;49.534;6.378;2023-01-05T00:45:17;12.50;99.90
53776;DHT22;44276;49.534;6.378;2023-01-05T00:47:48;12.40;99.90
53776;DHT22;44276;49.534;6.378;2023-01-05T00:50:21;12.30;99.90
53776;DHT22;44276;49.534;6.378;2023-01-05T00:52:49;12.20;99.90
53776;DHT22;44276;49.534;6.378;2023-01-05T00:55:17;12.10;99.90
53776;DHT22;44276;49.534;6.378;2023-01-05T00:57:45;12.00;99.90
53776;DHT22;44276;49.534;6.378;2023-01-05T01:00:16;11.90;99.90
53776;DHT22;44276;49.534;6.378;2023-01-05T01:02:47;11.90;99.90
53776;DHT22;44276;49.534;6.378;2023-01-05T01:05:18;11.80;99.90
53776;DHT22;44276;49.534;6.378;2023-01-05T01:07:46;11.70;99.90
53776;DHT22;44276;49.534;6.378;2023-01-05T01:10:15;11.50;99.90
53776;DHT22;44276;49.534;6.378;2023-01-05T01:12:43;11.50;99.90
53776;DHT22;44276;49.534;6.378;2023-01-05T01:15:11;11.40;99.90
53776;DHT22;44276;49.534;6.378;2023-01-05T01:17:39;11.40;99.90
53776;DHT22;44276;49.534;6.378;2023-01-05T01:20:09;11.40;99.90
53776;DHT22;44276;49.534;6.378;2023-01-05T01:22:37;11.30;99.90
53776;DHT22;44276;49.534;6.378;2023-01-05T01:25:05;11.30;99.90
53776;DHT22;44276;49.534;6.378;2023-01-05T01:27:34;11.30;99.90
53776;DHT22;44276;49.534;6.378;2023-01-05T01:30:02;11.30;99.90
53776;DHT22;44276;49.534;6.378;2023-01-05T01:32:31;11.30;99.90
53776;DHT22;44276;49.534;6.378;2023-01-05T01:35:00;11.30;99.90
53776;DHT22;44276;49.534;6.378;2023-01-05T01:37:29;11.30;99.90
53776;DHT22;44276;49.534;6.378;2023-01-05T01:39:57;11.40;99.90
53776;DHT22;44276;49.534;6.378;2023-01-05T01:42:25;11.40;99.90
53776;DHT22;44276;49.534;6.378;2023-01-05T01:44:55;11.30;99.90
53776;DHT22;44276;49.534;6.378;2023-01-05T01:47:38;11.10;99.90
53776;DHT22;44276;49.534;6.378;2023-01-05T01:50:13;11.00;99.90
53776;DHT22;44276;49.534;6.378;2023-01-05T01:52:48;10.90;99.90
53776;DHT22;44276;49.534;6.378;2023-01-05T01:55:21;10.90;99.90
53776;DHT22;44276;49.534;6.378;2023-01-05T01:57:49;10.90;99.90
53776;DHT22;44276;49.534;6.378;2023-01-05T02:00:19;10.80;99.90
53776;DHT22;44276;49.534;6.378;2023-01-05T02:02:50;10.70;99.90
53776;DHT22;44276;49.534;6.378;2023-01-05T02:05:23;10.70;99.90
53776;DHT22;44276;49.534;6.378;2023-01-05T02:07:55;10.70;99.90
53776;DHT22;44276;49.534;6.378;2023-01-05T02:10:37;10.70;99.90
53776;DHT22;44276;49.534;6.378;2023-01-05T02:13:29;10.70;99.90
53776;DHT22;44276;49.534;6.378;2023-01-05T02:16:20;10.70;99.90
53776;DHT22;44276;49.534;6.378;2023-01-05T02:19:12;10.60;99.90
53776;DHT22;44276;49.534;6.378;2023-01-05T02:22:15;10.40;99.90
53776;DHT22;44276;49.534;6.378;2023-01-05T02:25:22;10.40;99.90
53776;DHT22;44276;49.534;6.378;2023-01-05T02:28:16;10.20;99.90
53776;DHT22;44276;49.534;6.378;2023-01-05T02:31:12;10.20;99.90
53776;DHT22;44276;49.534;6.378;2023-01-05T02:34:01;10.10;99.90
53776;DHT22;44276;49.534;6.378;2023-01-05T02:36:41;10.00;99.90
53776;DHT22;44276;49.534;6.378;2023-01-05T02:39:17;10.00;99.90
53776;DHT22;44276;49.534;6.378;2023-01-05T02:41:52;9.90;99.90
53776;DHT22;44276;49.534;6.378;2023-01-05T02:44:27;9.90;99.90
53776;DHT22;44276;49.534;6.378;2023-01-05T02:47:00;9.90;99.90
53776;DHT22;44276;49.534;6.378;2023-01-05T02:49:32;10.00;99.90
53776;DHT22;44276;49.534;6.378;2023-01-05T02:52:06;10.10;99.90
53776;DHT22;44276;49.534;6.378;2023-01-05T02:54:42;10.20;99.90
53776;DHT22;44276;49.534;6.378;2023-01-05T02:57:18;10.20;99.90
53776;DHT22;44276;49.534;6.378;2023-01-05T03:00:13;10.20;99.90
53776;DHT22;44276;49.534;6.378;2023-01-05T03:02:47;10.40;99.90
53776;DHT22;44276;49.534;6.378;2023-01-05T03:05:23;10.40;99.90
53776;DHT22;44276;49.534;6.378;2023-01-05T03:07:57;10.50;99.90
53776;DHT22;44276;49.534;6.378;2023-01-05T03:10:45;10.50;99.90
53776;DHT22;44276;49.534;6.378;2023-01-05T03:13:38;10.60;99.90
53776;DHT22;44276;49.534;6.378;2023-01-05T03:16:12;10.70;99.90
53776;DHT22;44276;49.534;6.378;2023-01-05T03:18:48;10.60;99.90
53776;DHT22;44276;49.534;6.378;2023-01-05T03:21:36;10.70;99.90
53776;DHT22;44276;49.534;6.378;2023-01-05T03:24:22;10.70;99.90
53776;DHT22;44276;49.534;6.378;2023-01-05T03:27:08;10.60;99.90
53776;DHT22;44276;49.534;6.378;2023-01-05T03:29:54;10.50;99.90
53776;DHT22;44276;49.534;6.378;2023-01-05T03:32:45;10.40;99.90
53776;DHT22;44276;49.534;6.378;2023-01-05T03:35:41;10.40;99.90
53776;DHT22;44276;49.534;6.378;2023-01-05T03:38:16;10.40;99.90
53776;DHT22;44276;49.534;6.378;2023-01-05T03:40:54;10.50;99.90
53776;DHT22;44276;49.534;6.378;2023-01-05T03:43:26;10.60;99.90
53776;DHT22;44276;49.534;6.378;2023-01-05T03:45:56;10.70;99.90
53776;DHT22;44276;49.534;6.378;2023-01-05T03:48:26;10.70;99.90
53776;DHT22;44276;49.534;6.378;2023-01-05T03:50:57;10.70;99.90
53776;DHT22;44276;49.534;6.378;2023-01-05T03:53:25;10.80;99.90
53776;DHT22;44276;49.534;6.378;2023-01-05T03:55:53;10.70;99.90
53776;DHT22;44276;49.534;6.378;2023-01-05T03:58:21;10.70;99.90
53776;DHT22;44276;49.534;6.378;2023-01-05T04:00:49;10.70;99.90
53776;DHT22;44276;49.534;6.378;2023-01-05T04:03:17;10.70;99.90
53776;DHT22;44276;49.534;6.378;2023-01-05T04:05:45;10.70;99.90
53776;DHT22;44276;49.534;6.378;2023-01-05T04:08:15;10.60;99.90
53776;DHT22;44276;49.534;6.378;2023-01-05T04:10:43;10.60;99.90
53776;DHT22;44276;49.534;6.378;2023-01-05T04:13:11;10.70;99.90
53776;DHT22;44276;49.534;6.378;2023-01-05T04:15:39;10.60;99.90
53776;DHT22;44276;49.534;6.378;2023-01-05T04:18:08;10.50;99.90
53776;DHT22;44276;49.534;6.378;2023-01-05T04:20:36;10.50;99.90
53776;DHT22;44276;49.534;6.378;2023-01-05T04:23:04;10.40;99.90
53776;DHT22;44276;49.534;6.378;2023-01-05T04:25:33;10.60;99.90
53776;DHT22;44276;49.534;6.378;2023-01-05T04:28:02;10.60;99.90
53776;DHT22;44276;49.534;6.378;2023-01-05T04:30:30;10.50;99.90
53776;DHT22;44276;49.534;6.378;2023-01-05T04:32:58;10.40;99.90
53776;DHT22;44276;49.534;6.378;2023-01-05T04:35:27;10.40;99.90
53776;DHT22;44276;49.534;6.378;2023-01-05T04:37:55;10.40;99.90
53776;DHT22;44276;49.534;6.378;2023-01-05T04:40:23;10.50;99.90
53776;DHT22;44276;49.534;6.378;2023-01-05T04:42:52;10.40;99.90
53776;DHT22;44276;49.534;6.378;2023-01-05T04:45:20;10.60;99.90
53776;DHT22;44276;49.534;6.378;2023-01-05T04:47:50;10.80;99.90
53776;DHT22;44276;49.534;6.378;2023-01-05T04:50:19;10.90;99.90
53776;DHT22;44276;49.534;6.378;2023-01-05T04:52:47;10.80;99.90
53776;DHT22;44276;49.534;6.378;2023-01-05T04:55:16;10.70;99.90
53776;DHT22;44276;49.534;6.378;2023-01-05T04:57:44;10.60;99.90
53776;DHT22;44276;49.534;6.378;2023-01-05T05:00:14;10.50;99.90
53776;DHT22;44276;49.534;6.378;2023-01-05T05:02:42;10.50;99.90
53776;DHT22;44276;49.534;6.378;2023-01-05T05:05:11;10.50;99.90
53776;DHT22;44276;49.534;6.378;2023-01-05T05:07:39;10.50;99.90
53776;DHT22;44276;49.534;6.378;2023-01-05T05:10:07;10.50;99.90
53776;DHT22;44276;49.534;6.378;2023-01-05T05:12:36;10.70;99.90
53776;DHT22;44276;49.534;6.378;2023-01-05T05:15:05;10.70;99.90
53776;DHT22;44276;49.534;6.378;2023-01-05T05:17:35;10.70;99.90
53776;DHT22;44276;49.534;6.378;2023-01-05T05:20:04;10.60;99.90
53776;DHT22;44276;49.534;6.378;2023-01-05T05:22:33;10.70;99.90
53776;DHT22;44276;49.534;6.378;2023-01-05T05:25:02;10.70;99.90
53776;DHT22;44276;49.534;6.378;2023-01-05T05:27:30;10.70;99.90
53776;DHT22;44276;49.534;6.378;2023-01-05T05:29:58;10.80;99.90
53776;DHT22;44276;49.534;6.378;2023-01-05T05:32:26;10.80;99.90
53776;DHT22;44276;49.534;6.378;2023-01-05T05:34:55;10.80;99.90
53776;DHT22;44276;49.534;6.378;2023-01-05T05:37:23;10.70;99.90
53776;DHT22;44276;49.534;6.378;2023-01-05T05:39:52;10.80;99.90
53776;DHT22;44276;49.534;6.378;2023-01-05T05:42:20;10.80;99.90
53776;DHT22;44276;49.534;6.378;2023-01-05T05:44:48;10.80;99.90
53776;DHT22;44276;49.534;6.378;2023-01-05T05:47:16;10.70;99.90
53776;DHT22;44276;49.534;6.378;2023-01-05T05:49:44;10.70;99.90
53776;DHT22;44276;49.534;6.378;2023-01-05T05:52:13;10.70;99.90
53776;DHT22;44276;49.534;6.378;2023-01-05T05:54:42;10.70;99.90
53776;DHT22;44276;49.534;6.378;2023-01-05T05:57:10;10.70;99.90
53776;DHT22;44276;49.534;6.378;2023-01-05T05:59:38;10.70;99.90
53776;DHT22;44276;49.534;6.378;2023-01-05T06:02:06;10.70;99.90
53776;DHT22;44276;49.534;6.378;2023-01-05T06:04:34;10.70;99.90
53776;DHT22;44276;49.534;6.378;2023-01-05T06:07:02;10.70;99.90
53776;DHT22;44276;49.534;6.378;2023-01-05T06:09:32;10.70;99.90
53776;DHT22;44276;49.534;6.378;2023-01-05T06:12:00;10.70;99.90
53776;DHT22;44276;49.534;6.378;2023-01-05T06:14:28;10.70;99.90
53776;DHT22;44276;49.534;6.378;2023-01-05T06:16:56;10.60;99.90
53776;DHT22;44276;49.534;6.378;2023-01-05T06:19:24;10.60;99.90
53776;DHT22;44276;49.534;6.378;2023-01-05T06:21:52;10.60;99.90
53776;DHT22;44276;49.534;6.378;2023-01-05T06:24:20;10.50;99.90
53776;DHT22;44276;49.534;6.378;2023-01-05T06:26:50;10.50;99.90
53776;DHT22;44276;49.534;6.378;2023-01-05T06:29:18;10.40;99.90
53776;DHT22;44276;49.534;6.378;2023-01-05T06:31:46;10.40;99.90
53776;DHT22;44276;49.534;6.378;2023-01-05T06:34:14;10.40;99.90
53776;DHT22;44276;49.534;6.378;2023-01-05T06:36:42;10.40;99.90
53776;DHT22;44276;49.534;6.378;2023-01-05T06:39:11;10.40;99.90
53776;DHT22;44276;49.534;6.378;2023-01-05T06:41:39;10.40;99.90
53776;DHT22;44276;49.534;6.378;2023-01-05T06:44:09;10.40;99.90
53776;DHT22;44276;49.534;6.378;2023-01-05T06:46:37;10.40;99.90
53776;DHT22;44276;49.534;6.378;2023-01-05T06:49:06;10.40;99.90
53776;DHT22;44276;49.534;6.378;2023-01-05T06:51:36;10.40;99.90
53776;DHT22;44276;49.534;6.378;2023-01-05T06:54:06;10.40;99.90
53776;DHT22;44276;49.534;6.378;2023-01-05T06:56:34;10.40;99.90
53776;DHT22;44276;49.534;6.378;2023-01-05T06:59:03;10.40;99.90
53776;DHT22;44276;49.534;6.378;2023-01-05T07:01:32;10.30;99.90
53776;DHT22;44276;49.534;6.378;2023-01-05T07:04:00;10.30;99.90
53776;DHT22;44276;49.534;6.378;2023-01-05T07:06:29;10.30;99.90
53776;DHT22;44276;49.534;6.378;2023-01-05T07:08:57;10.40;99.90
53776;DHT22;44276;49.534;6.378;2023-01-05T07:11:25;10.40;99.90
53776;DHT22;44276;49.534;6.378;2023-01-05T07:13:54;10.40;99.90
53776;DHT22;44276;49.534;6.378;2023-01-05T07:16:22;10.50;99.90
53776;DHT22;44276;49.534;6.378;2023-01-05T07:18:51;10.50;99.90
53776;DHT22;44276;49.534;6.378;2023-01-05T07:21:19;10.50;99.90
53776;DHT22;44276;49.534;6.378;2023-01-05T07:23:48;10.40;99.90
53776;DHT22;44276;49.534;6.378;2023-01-05T07:26:16;10.40;99.90
53776;DHT22;44276;49.534;6.378;2023-01-05T07:28:44;10.50;99.90
53776;DHT22;44276;49.534;6.378;2023-01-05T07:31:12;10.50;99.90
53776;DHT22;44276;49.534;6.378;2023-01-05T07:33:40;10.40;99.90
53776;DHT22;44276;49.534;6.378;2023-01-05T07:36:10;10.40;99.90
53776;DHT22;44276;49.534;6.378;2023-01-05T07:38:39;10.30;99.90
53776;DHT22;44276;49.534;6.378;2023-01-05T07:41:07;10.40;99.90
53776;DHT22;44276;49.534;6.378;2023-01-05T07:43:35;10.40;99.90
53776;DHT22;44276;49.534;6.378;2023-01-05T07:46:04;10.50;99.90
53776;DHT22;44276;49.534;6.378;2023-01-05T07:48:32;10.50;99.90
53776;DHT22;44276;49.534;6.378;2023-01-05T07:51:01;10.50;99.90
53776;DHT22;44276;49.534;6.378;2023-01-05T07:53:34;10.40;99.90
53776;DHT22;44276;49.534;6.378;2023-01-05T07:56:11;10.40;99.90
53776;DHT22;44276;49.534;6.378;2023-01-05T07:58:40;10.50;99.90
53776;DHT22;44276;49.534;6.378;2023-01-05T08:01:10;10.50;99.90
53776;DHT22;44276;49.534;6.378;2023-01-05T08:03:40;10.60;99.90
53776;DHT22;44276;49.534;6.378;2023-01-05T08:06:10;10.60;99.90
53776;DHT22;44276;49.534;6.378;2023-01-05T08:08:41;10.70;99.90
53776;DHT22;44276;49.534;6.378;2023-01-05T08:11:10;10.70;99.90
53776;DHT22;44276;49.534;6.378;2023-01-05T08:13:40;10.70;99.90
53776;DHT22;44276;49.534;6.378;2023-01-05T08:16:28;10.70;99.90
53776;DHT22;44276;49.534;6.378;2023-01-05T08:18:59;10.70;99.90
53776;DHT22;44276;49.534;6.378;2023-01-05T08:21:32;10.70;99.90
53776;DHT22;44276;49.534;6.378;2023-01-05T08:24:01;10.70;99.90
53776;DHT22;44276;49.534;6.378;2023-01-05T08:26:30;10.70;99.90
53776;DHT22;44276;49.534;6.378;2023-01-05T08:28:58;10.80;99.90
53776;DHT22;44276;49.534;6.378;2023-01-05T08:31:29;10.70;99.90
53776;DHT22;44276;49.534;6.378;2023-01-05T08:34:03;10.70;99.90
53776;DHT22;44276;49.534;6.378;2023-01-05T08:36:32;10.70;99.90
53776;DHT22;44276;49.534;6.378;2023-01-05T08:39:01;10.70;99.90
53776;DHT22;44276;49.534;6.378;2023-01-05T08:41:32;10.70;99.90
53776;DHT22;44276;49.534;6.378;2023-01-05T08:44:04;10.80;99.90
53776;DHT22;44276;49.534;6.378;2023-01-05T08:46:34;10.90;99.90
53776;DHT22;44276;49.534;6.378;2023-01-05T08:49:04;11.00;99.90
53776;DHT22;44276;49.534;6.378;2023-01-05T08:51:35;11.10;99.90
53776;DHT22;44276;49.534;6.378;2023-01-05T08:54:05;11.00;99.90
53776;DHT22;44276;49.534;6.378;2023-01-05T08:56:33;11.10;99.90
53776;DHT22;44276;49.534;6.378;2023-01-05T08:59:05;11.10;99.90
53776;DHT22;44276;49.534;6.378;2023-01-05T09:01:33;11.20;99.90
53776;DHT22;44276;49.534;6.378;2023-01-05T09:04:02;11.20;99.90
53776;DHT22;44276;49.534;6.378;2023-01-05T09:06:30;11.20;99.90
53776;DHT22;44276;49.534;6.378;2023-01-05T09:08:59;11.20;99.90
53776;DHT22;44276;49.534;6.378;2023-01-05T09:11:28;11.20;99.90
53776;DHT22;44276;49.534;6.378;2023-01-05T09:13:58;11.10;99.90
53776;DHT22;44276;49.534;6.378;2023-01-05T09:16:31;11.10;99.90
53776;DHT22;44276;49.534;6.378;2023-01-05T09:19:20;11.00;99.90
53776;DHT22;44276;49.534;6.378;2023-01-05T09:21:49;11.20;99.90
53776;DHT22;44276;49.534;6.378;2023-01-05T09:24:17;11.40;99.90
53776;DHT22;44276;49.534;6.378;2023-01-05T09:26:47;11.40;99.90
53776;DHT22;44276;49.534;6.378;2023-01-05T09:29:16;11.60;99.90
53776;DHT22;44276;49.534;6.378;2023-01-05T09:31:44;11.80;99.90
53776;DHT22;44276;49.534;6.378;2023-01-05T09:34:12;11.80;99.90
53776;DHT22;44276;49.534;6.378;2023-01-05T09:36:40;11.80;99.90
53776;DHT22;44276;49.534;6.378;2023-01-05T09:39:09;11.90;99.90
53776;DHT22;44276;49.534;6.378;2023-01-05T09:41:39;11.80;99.90
53776;DHT22;44276;49.534;6.378;2023-01-05T09:44:19;11.70;99.90
53776;DHT22;44276;49.534;6.378;2023-01-05T09:46:56;11.90;99.90
53776;DHT22;44276;49.534;6.378;2023-01-05T09:49:30;12.10;98.60
53776;DHT22;44276;49.534;6.378;2023-01-05T09:52:02;11.90;99.90
53776;DHT22;44276;49.534;6.378;2023-01-05T09:54:36;11.70;99.90
53776;DHT22;44276;49.534;6.378;2023-01-05T09:57:10;11.70;99.90
53776;DHT22;44276;49.534;6.378;2023-01-05T09:59:45;11.70;99.90
53776;DHT22;44276;49.534;6.378;2023-01-05T10:02:23;11.90;99.90
53776;DHT22;44276;49.534;6.378;2023-01-05T10:04:57;12.70;87.60
53776;DHT22;44276;49.534;6.378;2023-01-05T10:07:36;12.70;76.60
53776;DHT22;44276;49.534;6.378;2023-01-05T10:10:16;12.50;88.80
53776;DHT22;44276;49.534;6.378;2023-01-05T10:12:58;12.30;90.90
53776;DHT22;44276;49.534;6.378;2023-01-05T10:15:37;12.20;94.30
53776;DHT22;44276;49.534;6.378;2023-01-05T10:18:12;12.10;90.70
53776;DHT22;44276;49.534;6.378;2023-01-05T10:20:49;12.20;92.70
53776;DHT22;44276;49.534;6.378;2023-01-05T10:23:37;12.20;90.90
53776;DHT22;44276;49.534;6.378;2023-01-05T10:26:20;12.20;92.80
53776;DHT22;44276;49.534;6.378;2023-01-05T10:28:56;12.10;90.40
53776;DHT22;44276;49.534;6.378;2023-01-05T10:31:42;12.10;90.70
53776;DHT22;44276;49.534;6.378;2023-01-05T10:34:20;12.20;88.30
53776;DHT22;44276;49.534;6.378;2023-01-05T10:37:06;12.10;90.80
53776;DHT22;44276;49.534;6.378;2023-01-05T10:40:06;12.10;90.80
53776;DHT22;44276;49.534;6.378;2023-01-05T10:42:48;12.00;93.30
53776;DHT22;44276;49.534;6.378;2023-01-05T10:45:27;12.00;93.80
53776;DHT22;44276;49.534;6.378;2023-01-05T10:47:58;12.00;94.50
53776;DHT22;44276;49.534;6.378;2023-01-05T10:50:33;12.00;94.80
53776;DHT22;44276;49.534;6.378;2023-01-05T10:53:08;12.10;93.60
53776;DHT22;44276;49.534;6.378;2023-01-05T10:55:44;12.10;93.40
53776;DHT22;44276;49.534;6.378;2023-01-05T10:58:22;12.10;90.10
53776;DHT22;44276;49.534;6.378;2023-01-05T11:00:54;12.10;90.50
53776;DHT22;44276;49.534;6.378;2023-01-05T11:03:34;12.30;85.00
53776;DHT22;44276;49.534;6.378;2023-01-05T11:06:27;12.40;86.70
53776;DHT22;44276;49.534;6.378;2023-01-05T11:09:05;12.60;72.40
53776;DHT22;44276;49.534;6.378;2023-01-05T11:11:54;12.60;66.60
53776;DHT22;44276;49.534;6.378;2023-01-05T11:14:25;12.40;70.70
53776;DHT22;44276;49.534;6.378;2023-01-05T11:17:01;12.40;67.20
53776;DHT22;44276;49.534;6.378;2023-01-05T11:19:35;12.60;66.60
53776;DHT22;44276;49.534;6.378;2023-01-05T11:22:27;12.60;67.80
53776;DHT22;44276;49.534;6.378;2023-01-05T11:25:21;12.60;66.10
53776;DHT22;44276;49.534;6.378;2023-01-05T11:28:09;12.70;69.30
53776;DHT22;44276;49.534;6.378;2023-01-05T11:30:46;12.90;62.40
53776;DHT22;44276;49.534;6.378;2023-01-05T11:33:26;13.00;61.10
53776;DHT22;44276;49.534;6.378;2023-01-05T11:35:58;13.10;61.80
53776;DHT22;44276;49.534;6.378;2023-01-05T11:38:29;13.20;60.60
53776;DHT22;44276;49.534;6.378;2023-01-05T11:40:59;13.60;56.40
53776;DHT22;44276;49.534;6.378;2023-01-05T11:43:29;13.70;52.20
53776;DHT22;44276;49.534;6.378;2023-01-05T11:46:01;13.40;54.30
53776;DHT22;44276;49.534;6.378;2023-01-05T11:48:33;13.80;53.00
53776;DHT22;44276;49.534;6.378;2023-01-05T11:51:04;14.70;44.10
53776;DHT22;44276;49.534;6.378;2023-01-05T11:53:37;14.50;41.80
53776;DHT22;44276;49.534;6.378;2023-01-05T11:56:17;14.10;44.30
53776;DHT22;44276;49.534;6.378;2023-01-05T11:58:48;13.60;50.70
53776;DHT22;44276;49.534;6.378;2023-01-05T12:01:45;13.50;54.20
53776;DHT22;44276;49.534;6.378;2023-01-05T12:04:53;13.40;53.40
53776;DHT22;44276;49.534;6.378;2023-01-05T12:07:33;13.20;55.70
53776;DHT22;44276;49.534;6.378;2023-01-05T12:10:20;13.30;55.40
53776;DHT22;44276;49.534;6.378;2023-01-05T12:13:03;13.50;53.00
53776;DHT22;44276;49.534;6.378;2023-01-05T12:15:50;13.50;52.40
53776;DHT22;44276;49.534;6.378;2023-01-05T12:18:44;13.30;54.80
53776;DHT22;44276;49.534;6.378;2023-01-05T12:21:33;13.10;55.30
53776;DHT22;44276;49.534;6.378;2023-01-05T12:27:28;12.90;59.20
53776;DHT22;44276;49.534;6.378;2023-01-05T12:30:23;12.80;63.00
53776;DHT22;44276;49.534;6.378;2023-01-05T12:33:29;12.70;69.50
53776;DHT22;44276;49.534;6.378;2023-01-05T12:36:40;12.50;68.10
53776;DHT22;44276;49.534;6.378;2023-01-05T12:39:37;12.40;77.50
53776;DHT22;44276;49.534;6.378;2023-01-05T12:42:28;12.50;71.70
53776;DHT22;44276;49.534;6.378;2023-01-05T12:45:28;12.60;67.20
53776;DHT22;44276;49.534;6.378;2023-01-05T12:48:14;12.50;64.00
53776;DHT22;44276;49.534;6.378;2023-01-05T12:50:48;12.30;67.60
53776;DHT22;44276;49.534;6.378;2023-01-05T12:53:34;12.30;68.70
53776;DHT22;44276;49.534;6.378;2023-01-05T12:56:18;12.20;71.50
53776;DHT22;44276;49.534;6.378;2023-01-05T12:59:02;12.20;73.70
53776;DHT22;44276;49.534;6.378;2023-01-05T13:01:39;12.30;71.90
53776;DHT22;44276;49.534;6.378;2023-01-05T13:04:24;12.30;67.00
53776;DHT22;44276;49.534;6.378;2023-01-05T13:07:11;12.40;64.20
53776;DHT22;44276;49.534;6.378;2023-01-05T13:09:47;12.60;69.00
53776;DHT22;44276;49.534;6.378;2023-01-05T13:12:31;12.60;64.50
53776;DHT22;44276;49.534;6.378;2023-01-05T13:15:05;12.60;61.90
53776;DHT22;44276;49.534;6.378;2023-01-05T13:17:44;12.50;63.60
53776;DHT22;44276;49.534;6.378;2023-01-05T13:20:30;12.40;66.30
53776;DHT22;44276;49.534;6.378;2023-01-05T13:23:09;12.40;66.10
53776;DHT22;44276;49.534;6.378;2023-01-05T13:25:48;12.40;63.40
53776;DHT22;44276;49.534;6.378;2023-01-05T13:28:22;12.30;69.20
53776;DHT22;44276;49.534;6.378;2023-01-05T13:31:16;12.40;69.30
53776;DHT22;44276;49.534;6.378;2023-01-05T13:41:20;12.50;70.20
53776;DHT22;44276;49.534;6.378;2023-01-05T13:44:15;12.50;71.50
53776;DHT22;44276;49.534;6.378;2023-01-05T13:47:17;12.60;77.20
53776;DHT22;44276;49.534;6.378;2023-01-05T13:53:08;12.70;72.90
53776;DHT22;44276;49.534;6.378;2023-01-05T13:55:43;12.70;70.60
53776;DHT22;44276;49.534;6.378;2023-01-05T13:58:39;12.60;74.80
53776;DHT22;44276;49.534;6.378;2023-01-05T14:01:14;12.60;83.20
53776;DHT22;44276;49.534;6.378;2023-01-05T14:03:50;12.70;85.70
53776;DHT22;44276;49.534;6.378;2023-01-05T14:06:22;12.60;90.00
53776;DHT22;44276;49.534;6.378;2023-01-05T14:08:56;12.60;90.80
53776;DHT22;44276;49.534;6.378;2023-01-05T14:11:33;12.50;90.20
53776;DHT22;44276;49.534;6.378;2023-01-05T14:14:05;12.30;94.00
53776;DHT22;44276;49.534;6.378;2023-01-05T14:16:53;12.30;99.90
53776;DHT22;44276;49.534;6.378;2023-01-05T14:19:47;12.20;99.90
53776;DHT22;44276;49.534;6.378;2023-01-05T14:22:24;12.20;99.90
53776;DHT22;44276;49.534;6.378;2023-01-05T14:31:45;11.90;99.90
53776;DHT22;44276;49.534;6.378;2023-01-05T14:34:17;11.80;99.90
53776;DHT22;44276;49.534;6.378;2023-01-05T14:37:02;11.80;99.90
53776;DHT22;44276;49.534;6.378;2023-01-05T14:39:41;11.70;99.90
53776;DHT22;44276;49.534;6.378;2023-01-05T14:42:24;11.60;99.90
53776;DHT22;44276;49.534;6.378;2023-01-05T14:44:59;11.50;99.90
53776;DHT22;44276;49.534;6.378;2023-01-05T14:47:36;11.30;99.90
53776;DHT22;44276;49.534;6.378;2023-01-05T14:50:25;11.10;99.90
53776;DHT22;44276;49.534;6.378;2023-01-05T14:53:00;11.00;99.90
53776;DHT22;44276;49.534;6.378;2023-01-05T14:55:32;10.90;99.90
53776;DHT22;44276;49.534;6.378;2023-01-05T14:58:10;10.70;99.90
53776;DHT22;44276;49.534;6.378;2023-01-05T15:00:50;10.70;99.90
53776;DHT22;44276;49.534;6.378;2023-01-05T15:03:29;10.60;99.90
53776;DHT22;44276;49.534;6.378;2023-01-05T15:06:07;10.50;99.90
53776;DHT22;44276;49.534;6.378;2023-01-05T15:08:59;10.50;99.90
53776;DHT22;44276;49.534;6.378;2023-01-05T15:12:07;10.50;99.90
53776;DHT22;44276;49.534;6.378;2023-01-05T15:15:13;10.50;99.90
53776;DHT22;44276;49.534;6.378;2023-01-05T15:18:27;10.50;99.90
53776;DHT22;44276;49.534;6.378;2023-01-05T15:25:10;10.60;99.90
53776;DHT22;44276;49.534;6.378;2023-01-05T15:28:29;10.50;99.90
53776;DHT22;44276;49.534;6.378;2023-01-05T15:31:28;10.50;99.90
53776;DHT22;44276;49.534;6.378;2023-01-05T15:34:11;10.50;99.90
53776;DHT22;44276;49.534;6.378;2023-01-05T15:36:50;10.40;99.90
53776;DHT22;44276;49.534;6.378;2023-01-05T15:39:23;10.40;99.90
53776;DHT22;44276;49.534;6.378;2023-01-05T15:41:59;10.40;99.90
53776;DHT22;44276;49.534;6.378;2023-01-05T15:44:36;10.40;99.90
53776;DHT22;44276;49.534;6.378;2023-01-05T15:47:08;10.40;99.90
53776;DHT22;44276;49.534;6.378;2023-01-05T15:49:38;10.40;99.90
53776;DHT22;44276;49.534;6.378;2023-01-05T15:52:17;10.40;99.90
53776;DHT22;44276;49.534;6.378;2023-01-05T15:55:01;10.50;99.90
53776;DHT22;44276;49.534;6.378;2023-01-05T15:57:33;10.40;99.90
53776;DHT22;44276;49.534;6.378;2023-01-05T16:00:02;10.40;99.90
53776;DHT22;44276;49.534;6.378;2023-01-05T16:02:41;10.30;99.90
53776;DHT22;44276;49.534;6.378;2023-01-05T16:05:13;10.30;99.90
53776;DHT22;44276;49.534;6.378;2023-01-05T16:07:45;10.30;99.90
53776;DHT22;44276;49.534;6.378;2023-01-05T16:10:20;10.30;99.90
53776;DHT22;44276;49.534;6.378;2023-01-05T16:12:58;10.30;99.90
53776;DHT22;44276;49.534;6.378;2023-01-05T16:15:32;10.20;99.90
53776;DHT22;44276;49.534;6.378;2023-01-05T16:18:03;10.20;99.90
53776;DHT22;44276;49.534;6.378;2023-01-05T16:20:37;10.10;99.90
53776;DHT22;44276;49.534;6.378;2023-01-05T16:23:15;10.00;99.90
53776;DHT22;44276;49.534;6.378;2023-01-05T16:25:49;10.00;99.90
53776;DHT22;44276;49.534;6.378;2023-01-05T16:28:25;9.90;99.90
53776;DHT22;44276;49.534;6.378;2023-01-05T16:30:54;10.00;99.90
53776;DHT22;44276;49.534;6.378;2023-01-05T16:33:28;10.00;99.90
53776;DHT22;44276;49.534;6.378;2023-01-05T16:36:17;10.00;99.90
53776;DHT22;44276;49.534;6.378;2023-01-05T16:38:46;10.00;99.90
53776;DHT22;44276;49.534;6.378;2023-01-05T16:41:22;10.00;99.90
53776;DHT22;44276;49.534;6.378;2023-01-05T16:43:54;10.00;99.90
53776;DHT22;44276;49.534;6.378;2023-01-05T16:46:36;10.00;99.90